createdAt,value
2023-03-11T00:00:58.171Z,18.57
2023-03-11T00:03:47.749Z,18.51
2023-03-11T00:06:36.906Z,18.50
2023-03-11T00:09:19.188Z,18.49
2023-03-11T00:12:07.867Z,18.47
2023-03-11T00:14:50.169Z,18.49
2023-03-11T00:17:38.881Z,18.45
2023-03-11T00:20:41.761Z,18.46
2023-03-11T00:23:31.870Z,18.42
2023-03-11T00:26:20.816Z,18.38
2023-03-11T00:29:09.178Z,18.43
2023-03-11T00:31:50.903Z,18.62
2023-03-11T00:34:39.138Z,18.79
2023-03-11T00:37:21.848Z,18.70
2023-03-11T00:40:16.866Z,18.67
2023-03-11T00:42:59.363Z,18.77
2023-03-11T00:45:48.034Z,18.76
2023-03-11T00:48:30.181Z,18.72
2023-03-11T00:51:24.877Z,18.66
2023-03-11T00:54:13.923Z,18.65
2023-03-11T00:56:57.129Z,18.70
2023-03-11T00:59:45.842Z,18.63
2023-03-11T01:02:34.121Z,18.63
2023-03-11T01:05:17.848Z,18.69
2023-03-11T01:08:00.853Z,18.72
2023-03-11T01:10:50.848Z,18.68
2023-03-11T01:13:33.275Z,18.62
2023-03-11T01:16:22.909Z,18.64
2023-03-11T01:19:11.890Z,18.58
2023-03-11T01:22:02.901Z,18.62
2023-03-11T01:24:45.124Z,18.59
2023-03-11T01:27:33.924Z,18.62
2023-03-11T01:30:20.476Z,18.52
2023-03-11T01:33:11.166Z,18.44
2023-03-11T01:36:00.296Z,18.45
2023-03-11T01:38:42.836Z,18.47
2023-03-11T01:41:31.117Z,18.54
2023-03-11T01:44:13.792Z,18.56
2023-03-11T01:46:56.025Z,18.70
2023-03-11T01:49:49.786Z,18.78
2023-03-11T01:52:32.573Z,18.82
2023-03-11T01:55:22.884Z,18.84
2023-03-11T01:58:15.856Z,18.94
2023-03-11T02:00:59.140Z,19.08
2023-03-11T02:03:49.801Z,19.26
2023-03-11T02:06:33.176Z,19.33
2023-03-11T02:09:21.891Z,19.53
2023-03-11T02:12:06.144Z,19.50
2023-03-11T02:14:58.805Z,19.57
2023-03-11T02:17:44.180Z,19.80
2023-03-11T02:20:51.882Z,19.93
2023-03-11T02:24:21.100Z,20.10
2023-03-11T02:27:04.879Z,20.25
2023-03-11T02:29:49.233Z,20.89
2023-03-11T02:32:38.962Z,21.62
2023-03-11T02:35:29.173Z,22.20
2023-03-11T02:38:14.359Z,22.32
2023-03-11T02:41:08.285Z,22.43
2023-03-11T02:43:53.897Z,22.76
2023-03-11T02:46:44.820Z,23.41
2023-03-11T02:49:30.182Z,24.40
2023-03-11T02:52:20.697Z,25.26
2023-03-11T02:55:04.164Z,25.90
2023-03-11T02:57:55.851Z,26.38
2023-03-11T03:00:38.334Z,26.21
2023-03-11T03:03:27.836Z,26.36
2023-03-11T03:06:16.725Z,26.53
2023-03-11T03:09:07.834Z,26.18
2023-03-11T03:11:50.151Z,26.63
2023-03-11T03:14:39.915Z,26.56
2023-03-11T03:17:22.178Z,26.15
2023-03-11T03:20:14.810Z,26.06
2023-03-11T03:23:13.873Z,25.86
2023-03-11T03:26:03.453Z,25.68
2023-03-11T03:28:46.778Z,25.78
2023-03-11T03:31:29.180Z,25.50
2023-03-11T03:34:18.832Z,25.00
2023-03-11T03:37:08.107Z,24.77
2023-03-11T03:39:50.885Z,24.66
2023-03-11T03:42:39.934Z,24.85
2023-03-11T03:45:23.102Z,24.90
2023-03-11T03:48:12.841Z,25.09
2023-03-11T03:51:02.889Z,25.01
2023-03-11T03:53:48.998Z,25.29
2023-03-11T03:56:40.314Z,25.19
2023-03-11T03:59:28.086Z,25.24
2023-03-11T04:02:10.935Z,25.33
2023-03-11T04:04:59.846Z,25.59
2023-03-11T04:07:43.109Z,25.44
2023-03-11T04:10:32.819Z,25.43
2023-03-11T04:13:15.135Z,25.68
2023-03-11T04:16:04.813Z,26.11
2023-03-11T04:18:47.103Z,25.96
2023-03-11T04:21:42.884Z,26.16
2023-03-11T04:24:32.142Z,26.24
2023-03-11T04:27:14.910Z,26.04
2023-03-11T04:30:04.237Z,26.54
2023-03-11T04:32:46.934Z,26.65
2023-03-11T04:35:36.428Z,26.93
2023-03-11T04:38:18.859Z,27.21
2023-03-11T04:41:05.802Z,27.14
2023-03-11T04:43:56.886Z,27.57
2023-03-11T04:46:45.050Z,27.44
2023-03-11T04:49:30.385Z,27.49
2023-03-11T04:52:24.875Z,27.39
2023-03-11T04:55:15.116Z,27.62
2023-03-11T04:57:57.909Z,27.22
2023-03-11T05:00:42.388Z,27.49
2023-03-11T05:03:31.835Z,28.29
2023-03-11T05:06:15.399Z,28.26
2023-03-11T05:09:03.894Z,28.53
2023-03-11T05:11:55.138Z,28.28
2023-03-11T05:14:38.857Z,28.44
2023-03-11T05:17:28.265Z,28.50
2023-03-11T05:20:15.629Z,28.50
2023-03-11T05:23:06.680Z,28.96
2023-03-11T05:25:49.853Z,28.85
2023-03-11T05:28:32.795Z,28.72
2023-03-11T05:31:22.852Z,28.97
2023-03-11T05:34:05.023Z,29.17
2023-03-11T05:36:53.842Z,28.93
2023-03-11T05:39:38.864Z,28.92
2023-03-11T05:42:30.128Z,29.26
2023-03-11T05:45:20.182Z,29.39
2023-03-11T05:48:03.819Z,29.23
2023-03-11T05:50:54.255Z,29.76
2023-03-11T05:53:36.888Z,29.31
2023-03-11T05:56:28.241Z,29.68
2023-03-11T05:59:12.847Z,29.60
2023-03-11T06:02:03.613Z,29.53
2023-03-11T06:04:55.153Z,29.59
2023-03-11T06:07:45.097Z,29.67
2023-03-11T06:10:27.833Z,29.87
2023-03-11T06:13:17.177Z,29.91
2023-03-11T06:16:00.892Z,29.92
2023-03-11T06:18:43.026Z,29.94
2023-03-11T06:21:34.850Z,30.05
2023-03-11T06:24:23.168Z,30.27
2023-03-11T06:27:07.687Z,30.03
2023-03-11T06:30:01.183Z,30.16
2023-03-11T06:32:52.983Z,30.28
2023-03-11T06:35:35.054Z,30.14
2023-03-11T06:38:23.858Z,29.96
2023-03-11T06:41:07.578Z,30.15
2023-03-11T06:43:57.835Z,30.54
2023-03-11T06:46:41.540Z,30.62
2023-03-11T06:49:31.835Z,30.54
2023-03-11T06:52:21.268Z,30.51
2023-03-11T06:55:04.843Z,30.44
2023-03-11T06:57:47.193Z,30.33
2023-03-11T07:00:36.180Z,30.38
2023-03-11T07:03:25.083Z,30.38
2023-03-11T07:06:08.881Z,30.56
2023-03-11T07:08:59.284Z,30.85
2023-03-11T07:11:43.846Z,30.83
2023-03-11T07:14:33.064Z,30.68
2023-03-11T07:17:21.861Z,30.50
2023-03-11T07:20:12.138Z,30.75
2023-03-11T07:23:07.811Z,30.67
2023-03-11T07:25:57.226Z,30.63
2023-03-11T07:28:39.907Z,30.48
2023-03-11T07:31:32.239Z,30.60
2023-03-11T07:34:18.965Z,30.49
2023-03-11T07:37:08.173Z,30.53
2023-03-11T07:39:50.852Z,30.45
2023-03-11T07:42:39.158Z,30.48
2023-03-11T07:45:21.883Z,30.20
2023-03-11T07:48:11.063Z,30.49
2023-03-11T07:50:53.923Z,30.48
2023-03-11T07:53:43.230Z,30.80
2023-03-11T07:56:26.860Z,30.55
2023-03-11T07:59:15.070Z,30.60
2023-03-11T08:01:57.842Z,30.52
2023-03-11T08:04:46.138Z,30.26
2023-03-11T08:07:29.190Z,30.45
2023-03-11T08:10:18.178Z,30.17
2023-03-11T08:13:00.877Z,30.45
2023-03-11T08:15:43.177Z,30.24
2023-03-11T08:18:31.839Z,30.32
2023-03-11T08:21:16.971Z,30.42
2023-03-11T08:24:07.054Z,30.25
2023-03-11T08:27:00.957Z,30.23
2023-03-11T08:29:42.880Z,30.21
2023-03-11T08:32:25.066Z,30.39
2023-03-11T08:35:14.854Z,29.95
2023-03-11T08:37:57.130Z,30.28
2023-03-11T08:40:45.833Z,30.25
2023-03-11T08:43:35.218Z,30.38
2023-03-11T08:46:22.030Z,30.36
2023-03-11T08:49:05.344Z,30.36
2023-03-11T08:51:53.767Z,30.32
2023-03-11T08:54:43.834Z,30.02
2023-03-11T08:57:26.871Z,29.93
2023-03-11T09:00:17.475Z,30.14
2023-03-11T09:03:00.221Z,30.08
2023-03-11T09:05:48.809Z,30.22
2023-03-11T09:08:31.250Z,30.33
2023-03-11T09:11:23.143Z,30.04
2023-03-11T09:14:05.164Z,30.02
2023-03-11T09:16:53.868Z,30.11
2023-03-11T09:19:37.057Z,30.19
2023-03-11T09:22:31.793Z,30.10
2023-03-11T09:25:21.173Z,30.07
2023-03-11T09:28:02.847Z,30.17
2023-03-11T09:30:51.217Z,30.17
2023-03-11T09:33:33.787Z,30.05
2023-03-11T09:36:25.209Z,30.09
2023-03-11T09:39:08.877Z,30.16
2023-03-11T09:42:03.205Z,29.93
2023-03-11T09:45:02.872Z,29.80
2023-03-11T09:48:12.824Z,29.68
2023-03-11T09:50:58.207Z,29.67
2023-03-11T09:53:54.874Z,29.64
2023-03-11T09:56:44.584Z,29.76
2023-03-11T09:59:42.010Z,29.71
2023-03-11T10:02:28.755Z,29.72
2023-03-11T10:05:37.859Z,29.83
2023-03-11T10:09:05.599Z,29.84
2023-03-11T10:12:20.102Z,29.88
2023-03-11T10:15:08.338Z,29.91
2023-03-11T10:18:25.762Z,29.84
2023-03-11T10:21:29.878Z,29.80
2023-03-11T10:25:08.253Z,29.77
2023-03-11T10:27:55.865Z,29.62
2023-03-11T10:31:09.215Z,29.58
2023-03-11T10:34:14.886Z,29.44
2023-03-11T10:37:46.292Z,29.35
2023-03-11T10:40:47.895Z,29.35
2023-03-11T10:44:10.113Z,29.32
2023-03-11T10:46:52.839Z,29.29
2023-03-11T10:49:41.092Z,29.26
2023-03-11T10:52:24.837Z,29.23
2023-03-11T10:55:14.149Z,29.27
2023-03-11T10:57:56.856Z,29.28
2023-03-11T11:00:39.125Z,29.28
2023-03-11T11:03:35.838Z,29.30
2023-03-11T11:06:30.185Z,29.30
2023-03-11T11:09:33.779Z,29.24
2023-03-11T11:12:18.790Z,29.16
2023-03-11T11:15:08.088Z,29.06
2023-03-11T11:17:57.122Z,28.96
2023-03-11T11:20:40.926Z,28.85
2023-03-11T11:24:03.629Z,28.81
2023-03-11T11:27:11.910Z,28.78
2023-03-11T11:29:56.071Z,28.72
2023-03-11T11:32:45.963Z,28.64
2023-03-11T11:35:31.175Z,28.59
2023-03-11T11:38:20.055Z,28.51
2023-03-11T11:41:06.564Z,28.46
2023-03-11T11:44:02.806Z,28.39
2023-03-11T11:47:06.485Z,28.42
2023-03-11T11:50:05.760Z,28.42
2023-03-11T11:53:03.840Z,28.39
2023-03-11T11:55:51.683Z,28.40
2023-03-11T11:58:40.827Z,28.37
2023-03-11T12:01:40.125Z,28.32
2023-03-11T12:04:48.824Z,28.22
2023-03-11T12:08:05.329Z,28.12
2023-03-11T12:11:01.849Z,28.03
2023-03-11T12:14:05.356Z,27.94
2023-03-11T12:17:25.238Z,27.79
2023-03-11T12:20:24.161Z,27.71
2023-03-11T12:23:17.813Z,27.67
2023-03-11T12:26:21.826Z,27.61
2023-03-11T12:29:21.836Z,27.53
2023-03-11T12:32:11.942Z,27.45
2023-03-11T12:35:01.142Z,27.42
2023-03-11T12:37:43.832Z,27.33
2023-03-11T12:40:48.408Z,27.23
2023-03-11T12:43:45.905Z,27.17
2023-03-11T12:47:01.494Z,27.16
2023-03-11T12:49:59.790Z,27.10
2023-03-11T12:52:56.403Z,27.04
2023-03-11T12:55:47.819Z,27.00
2023-03-11T12:58:48.124Z,26.88
2023-03-11T13:02:01.995Z,26.79
2023-03-11T13:05:08.810Z,26.71
2023-03-11T13:08:08.792Z,26.57
2023-03-11T13:11:02.078Z,26.51
2023-03-11T13:13:45.824Z,26.43
2023-03-11T13:16:28.169Z,26.32
2023-03-11T13:19:49.139Z,26.22
2023-03-11T13:23:17.880Z,26.15
2023-03-11T13:26:27.855Z,26.13
2023-03-11T13:29:30.249Z,26.07
2023-03-11T13:32:36.901Z,26.07
2023-03-11T13:35:56.402Z,26.04
2023-03-11T13:39:16.843Z,25.97
2023-03-11T13:42:00.309Z,25.90
2023-03-11T13:44:49.854Z,25.86
2023-03-11T13:47:39.259Z,25.78
2023-03-11T13:50:39.790Z,25.84
2023-03-11T13:53:40.836Z,25.82
2023-03-11T13:56:37.111Z,25.79
2023-03-11T13:59:32.871Z,25.78
2023-03-11T14:02:31.359Z,25.75
2023-03-11T14:05:24.830Z,25.73
2023-03-11T14:08:28.402Z,25.76
2023-03-11T14:11:29.858Z,25.74
2023-03-11T14:14:52.221Z,25.65
2023-03-11T14:17:34.867Z,25.60
2023-03-11T14:20:21.132Z,25.58
2023-03-11T14:23:12.214Z,25.50
2023-03-11T14:26:13.060Z,25.38
2023-03-11T14:29:00.062Z,25.23
2023-03-11T14:31:47.062Z,25.22
2023-03-11T14:34:40.912Z,25.16
2023-03-11T14:37:29.162Z,25.09
2023-03-11T14:40:19.888Z,25.00
2023-03-11T14:43:16.857Z,24.97
2023-03-11T14:46:01.185Z,24.92
2023-03-11T14:48:51.832Z,24.95
2023-03-11T14:51:39.171Z,24.91
2023-03-11T14:54:35.938Z,24.88
2023-03-11T14:57:32.138Z,24.82
2023-03-11T15:00:47.876Z,24.63
2023-03-11T15:03:55.819Z,24.56
2023-03-11T15:06:50.150Z,24.54
2023-03-11T15:09:34.827Z,24.40
2023-03-11T15:12:45.875Z,24.38
2023-03-11T15:15:32.092Z,24.31
2023-03-11T15:18:31.830Z,24.29
2023-03-11T15:21:26.266Z,24.25
2023-03-11T15:24:14.949Z,24.24
2023-03-11T15:27:13.110Z,24.25
2023-03-11T15:30:02.814Z,24.26
2023-03-11T15:32:57.195Z,24.26
2023-03-11T15:35:56.257Z,24.20
2023-03-11T15:38:37.821Z,24.19
2023-03-11T15:41:26.903Z,24.17
2023-03-11T15:44:09.425Z,24.11
2023-03-11T15:46:57.855Z,24.06
2023-03-11T15:49:41.348Z,24.07
2023-03-11T15:52:29.914Z,24.09
2023-03-11T15:55:12.433Z,24.13
2023-03-11T15:58:11.808Z,24.24
2023-03-11T16:01:00.204Z,24.28
2023-03-11T16:03:48.888Z,24.19
2023-03-11T16:06:31.249Z,24.11
2023-03-11T16:09:20.867Z,24.07
2023-03-11T16:12:03.275Z,24.05
2023-03-11T16:14:52.853Z,23.91
2023-03-11T16:17:48.873Z,24.04
2023-03-11T16:21:22.986Z,23.98
2023-03-11T16:24:29.150Z,24.06
2023-03-11T16:27:11.814Z,23.90
2023-03-11T16:30:01.290Z,23.84
2023-03-11T16:32:42.871Z,23.86
2023-03-11T16:35:32.164Z,23.87
2023-03-11T16:38:15.784Z,24.18
2023-03-11T16:41:00.965Z,23.98
2023-03-11T16:43:49.860Z,23.91
2023-03-11T16:46:32.129Z,23.85
2023-03-11T16:49:24.697Z,23.74
2023-03-11T16:52:07.260Z,24.25
2023-03-11T16:54:55.819Z,24.13
2023-03-11T16:57:44.152Z,24.01
2023-03-11T17:00:26.809Z,23.88
2023-03-11T17:03:21.550Z,23.62
2023-03-11T17:06:12.804Z,23.62
2023-03-11T17:09:01.265Z,23.65
2023-03-11T17:11:43.871Z,23.53
2023-03-11T17:14:27.064Z,23.52
2023-03-11T17:17:15.858Z,23.45
2023-03-11T17:20:04.732Z,23.31
2023-03-11T17:23:00.882Z,23.33
2023-03-11T17:25:50.050Z,23.20
2023-03-11T17:28:31.869Z,23.12
2023-03-11T17:31:23.388Z,23.00
2023-03-11T17:34:06.900Z,23.01
2023-03-11T17:36:57.164Z,23.04
2023-03-11T17:39:38.837Z,23.06
2023-03-11T17:42:21.203Z,22.96
2023-03-11T17:45:12.767Z,22.93
2023-03-11T17:48:02.252Z,23.05
2023-03-11T17:50:48.075Z,22.91
2023-03-11T17:53:39.010Z,22.86
2023-03-11T17:56:22.817Z,22.82
2023-03-11T17:59:12.201Z,22.79
2023-03-11T18:01:54.848Z,22.82
2023-03-11T18:04:44.843Z,22.87
2023-03-11T18:07:28.189Z,22.83
2023-03-11T18:10:17.816Z,22.79
2023-03-11T18:13:00.205Z,22.80
2023-03-11T18:15:48.799Z,22.70
2023-03-11T18:18:53.689Z,22.73
2023-03-11T18:21:42.828Z,22.80
2023-03-11T18:24:32.191Z,22.67
2023-03-11T18:27:14.797Z,22.55
2023-03-11T18:29:57.001Z,22.76
2023-03-11T18:32:45.910Z,22.70
2023-03-11T18:35:28.263Z,22.59
2023-03-11T18:38:18.910Z,22.53
2023-03-11T18:41:08.334Z,22.48
2023-03-11T18:43:50.859Z,22.45
2023-03-11T18:46:43.614Z,22.45
2023-03-11T18:49:25.753Z,22.34
2023-03-11T18:52:08.162Z,22.30
2023-03-11T18:54:57.243Z,22.35
2023-03-11T18:57:41.395Z,22.28
2023-03-11T19:00:30.747Z,22.14
2023-03-11T19:03:13.831Z,22.03
2023-03-11T19:06:03.769Z,22.00
2023-03-11T19:08:52.859Z,21.87
2023-03-11T19:11:35.304Z,21.79
2023-03-11T19:14:23.870Z,21.70
2023-03-11T19:17:06.262Z,21.74
2023-03-11T19:19:54.802Z,21.69
2023-03-11T19:22:37.299Z,21.66
2023-03-11T19:25:28.103Z,21.61
2023-03-11T19:28:10.129Z,21.54
2023-03-11T19:31:04.013Z,21.52
2023-03-11T19:33:51.955Z,21.54
2023-03-11T19:36:40.904Z,21.47
2023-03-11T19:39:23.286Z,21.42
2023-03-11T19:42:11.806Z,21.37
2023-03-11T19:44:55.495Z,21.29
2023-03-11T19:47:44.863Z,21.21
2023-03-11T19:50:33.842Z,21.19
2023-03-11T19:53:24.139Z,21.16
2023-03-11T19:56:07.138Z,21.10
2023-03-11T19:58:55.206Z,21.01
2023-03-11T20:01:38.791Z,20.97
2023-03-11T20:04:33.773Z,20.96
2023-03-11T20:07:22.905Z,20.92
2023-03-11T20:10:05.302Z,20.86
2023-03-11T20:13:02.030Z,20.87
2023-03-11T20:15:46.242Z,20.83
2023-03-11T20:18:34.818Z,20.81
2023-03-11T20:21:20.167Z,20.81
2023-03-11T20:24:15.767Z,20.79
2023-03-11T20:27:04.906Z,20.76
2023-03-11T20:29:47.202Z,20.77
2023-03-11T20:32:36.924Z,20.77
2023-03-11T20:35:19.602Z,20.73
2023-03-11T20:38:10.832Z,20.62
2023-03-11T20:40:53.189Z,20.58
2023-03-11T20:43:42.744Z,20.55
2023-03-11T20:46:25.196Z,20.51
2023-03-11T20:49:13.806Z,20.50
2023-03-11T20:52:02.824Z,20.48
2023-03-11T20:54:51.822Z,20.46
2023-03-11T20:57:41.714Z,20.41
2023-03-11T21:00:30.880Z,20.37
2023-03-11T21:03:13.070Z,20.35
2023-03-11T21:06:02.238Z,20.30
2023-03-11T21:08:44.154Z,20.26
2023-03-11T21:11:33.935Z,20.29
2023-03-11T21:14:17.203Z,20.28
2023-03-11T21:17:05.987Z,20.23
2023-03-11T21:19:48.221Z,20.21
2023-03-11T21:22:36.834Z,20.20
2023-03-11T21:25:31.661Z,20.22
2023-03-11T21:28:21.803Z,20.25
2023-03-11T21:31:12.196Z,20.23
2023-03-11T21:34:02.900Z,20.20
2023-03-11T21:36:51.892Z,20.20
2023-03-11T21:39:40.109Z,20.19
2023-03-11T21:42:22.946Z,20.15
2023-03-11T21:45:12.148Z,20.14
2023-03-11T21:47:53.932Z,20.01
2023-03-11T21:50:36.560Z,20.08
2023-03-11T21:53:25.891Z,20.05
2023-03-11T21:56:15.203Z,20.03
2023-03-11T21:58:57.923Z,20.04
2023-03-11T22:01:46.906Z,20.21
2023-03-11T22:04:29.179Z,20.91
2023-03-11T22:07:18.843Z,21.14
2023-03-11T22:10:01.117Z,20.79
2023-03-11T22:12:50.129Z,20.64
2023-03-11T22:15:33.078Z,20.70
2023-03-11T22:18:21.907Z,20.78
2023-03-11T22:21:12.933Z,21.18
2023-03-11T22:24:08.711Z,20.87
2023-03-11T22:26:57.827Z,20.81
2023-03-11T22:29:40.404Z,21.03
2023-03-11T22:32:29.850Z,20.81
2023-03-11T22:35:18.772Z,20.69
2023-03-11T22:38:01.027Z,20.66
2023-03-11T22:40:49.787Z,20.59
2023-03-11T22:43:38.914Z,20.48
2023-03-11T22:46:21.129Z,20.37
2023-03-11T22:49:09.855Z,20.58
2023-03-11T22:51:58.861Z,20.60
2023-03-11T22:54:47.746Z,20.57
2023-03-11T22:57:37.838Z,20.61
2023-03-11T23:00:23.503Z,20.73
2023-03-11T23:03:12.850Z,20.52
2023-03-11T23:05:55.112Z,20.47
2023-03-11T23:08:43.878Z,20.38
2023-03-11T23:11:25.980Z,20.36
2023-03-11T23:14:14.830Z,20.34
2023-03-11T23:17:04.152Z,20.35
2023-03-11T23:19:46.095Z,20.38
2023-03-11T23:22:34.838Z,20.32
2023-03-11T23:25:31.736Z,20.32
2023-03-11T23:28:20.769Z,20.38
2023-03-11T23:31:04.416Z,20.33
2023-03-11T23:33:53.794Z,20.30
2023-03-11T23:36:38.072Z,20.22
2023-03-11T23:39:26.789Z,20.26
2023-03-11T23:42:25.404Z,20.19
2023-03-11T23:45:16.127Z,20.34
2023-03-11T23:47:58.864Z,20.24
2023-03-11T23:50:41.097Z,20.32
2023-03-11T23:53:30.818Z,20.34
2023-03-11T23:56:23.048Z,20.26
2023-03-11T23:59:04.818Z,20.26
